createdAt,value
2016-07-24T00:00:01.612Z,1015.6
2016-07-24T00:00:11.608Z,1015.6
2016-07-24T00:00:21.602Z,1015.62
2016-07-24T00:00:31.601Z,1015.61
2016-07-24T00:00:41.595Z,1015.59
2016-07-24T00:00:51.591Z,1015.61
2016-07-24T00:01:01.585Z,1015.53
2016-07-24T00:01:11.580Z,1015.6
2016-07-24T00:01:21.577Z,1015.58
2016-07-24T00:01:31.572Z,1015.56
2016-07-24T00:01:41.568Z,1015.6
2016-07-24T00:01:51.563Z,1015.6
2016-07-24T00:02:01.558Z,1015.57
2016-07-24T00:02:11.554Z,1015.56
2016-07-24T00:02:21.550Z,1015.6
2016-07-24T00:02:31.544Z,1015.58
2016-07-24T00:02:41.541Z,1015.54
2016-07-24T00:02:51.535Z,1015.57
2016-07-24T00:03:01.530Z,1015.57
2016-07-24T00:03:11.527Z,1015.54
2016-07-24T00:03:21.521Z,1015.54
2016-07-24T00:03:31.517Z,1015.6
2016-07-24T00:03:41.513Z,1015.54
2016-07-24T00:03:51.509Z,1015.6
2016-07-24T00:04:01.503Z,1015.58
2016-07-24T00:04:11.499Z,1015.6
2016-07-24T00:04:21.495Z,1015.54
2016-07-24T00:04:31.492Z,1015.55
2016-07-24T00:04:41.488Z,1015.58
2016-07-24T00:04:51.481Z,1015.57
2016-07-24T00:05:01.476Z,1015.54
2016-07-24T00:05:12.203Z,1015.54
2016-07-24T00:05:21.468Z,1015.55
2016-07-24T00:05:31.464Z,1015.56
2016-07-24T00:05:41.461Z,1015.56
2016-07-24T00:05:51.453Z,1015.58
2016-07-24T00:06:01.454Z,1015.56
2016-07-24T00:06:11.446Z,1015.57
2016-07-24T00:06:21.443Z,1015.55
2016-07-24T00:06:31.437Z,1015.51
2016-07-24T00:06:41.431Z,1015.52
2016-07-24T00:06:51.427Z,1015.57
2016-07-24T00:07:01.424Z,1015.55
2016-07-24T00:07:11.418Z,1015.55
2016-07-24T00:07:21.415Z,1015.51
2016-07-24T00:07:31.408Z,1015.54
2016-07-24T00:07:41.404Z,1015.53
2016-07-24T00:07:51.398Z,1015.51
2016-07-24T00:08:01.395Z,1015.55
2016-07-24T00:08:11.392Z,1015.51
2016-07-24T00:08:21.387Z,1015.5
2016-07-24T00:08:31.380Z,1015.54
2016-07-24T00:08:41.377Z,1015.5
2016-07-24T00:08:51.373Z,1015.52
2016-07-24T00:09:02.101Z,1015.51
2016-07-24T00:09:11.363Z,1015.49
2016-07-24T00:09:21.359Z,1015.49
2016-07-24T00:09:31.357Z,1015.51
2016-07-24T00:09:41.351Z,1015.52
2016-07-24T00:09:51.345Z,1015.48
2016-07-24T00:10:01.342Z,1015.5
2016-07-24T00:10:11.336Z,1015.55
2016-07-24T00:10:21.332Z,1015.51
2016-07-24T00:10:31.327Z,1015.52
2016-07-24T00:10:41.322Z,1015.5
2016-07-24T00:10:51.317Z,1015.52
2016-07-24T00:11:01.314Z,1015.52
2016-07-24T00:11:11.309Z,1015.55
2016-07-24T00:11:21.305Z,1015.54
2016-07-24T00:11:31.305Z,1015.53
2016-07-24T00:11:41.295Z,1015.51
2016-07-24T00:11:51.290Z,1015.51
2016-07-24T00:12:01.285Z,1015.52
2016-07-24T00:12:11.284Z,1015.55
2016-07-24T00:12:22.008Z,1015.5
2016-07-24T00:12:31.274Z,1015.55
2016-07-24T00:12:41.267Z,1015.53
2016-07-24T00:12:51.993Z,1015.56
2016-07-24T00:13:01.261Z,1015.59
2016-07-24T00:13:11.255Z,1015.56
2016-07-24T00:13:21.251Z,1015.56
2016-07-24T00:13:31.247Z,1015.52
2016-07-24T00:13:41.242Z,1015.57
2016-07-24T00:13:51.235Z,1015.55
2016-07-24T00:14:01.235Z,1015.55
2016-07-24T00:14:11.228Z,1015.57
2016-07-24T00:14:21.223Z,1015.56
2016-07-24T00:14:31.218Z,1015.61
2016-07-24T00:14:41.215Z,1015.55
2016-07-24T00:14:51.212Z,1015.58
2016-07-24T00:15:01.208Z,1015.55
2016-07-24T00:15:11.202Z,1015.55
2016-07-24T00:15:21.197Z,1015.51
2016-07-24T00:15:31.191Z,1015.55
2016-07-24T00:15:41.189Z,1015.6
2016-07-24T00:15:51.183Z,1015.54
2016-07-24T00:16:01.178Z,1015.58
2016-07-24T00:16:11.173Z,1015.53
2016-07-24T00:16:21.170Z,1015.51
2016-07-24T00:16:31.167Z,1015.53
2016-07-24T00:16:41.165Z,1015.57
2016-07-24T00:16:51.156Z,1015.58
2016-07-24T00:17:01.151Z,1015.57
2016-07-24T00:17:11.148Z,1015.58
2016-07-24T00:17:21.142Z,1015.62
2016-07-24T00:17:31.139Z,1015.55
2016-07-24T00:17:41.142Z,1015.57
2016-07-24T00:17:51.129Z,1015.59
2016-07-24T00:18:01.125Z,1015.55
2016-07-24T00:18:11.121Z,1015.56
2016-07-24T00:18:21.116Z,1015.57
2016-07-24T00:18:31.112Z,1015.59
2016-07-24T00:18:41.106Z,1015.56
2016-07-24T00:18:51.101Z,1015.58
2016-07-24T00:19:01.095Z,1015.6
2016-07-24T00:19:11.092Z,1015.56
2016-07-24T00:19:21.089Z,1015.59
2016-07-24T00:19:31.084Z,1015.56
2016-07-24T00:19:41.081Z,1015.63
2016-07-24T00:19:51.073Z,1015.62
2016-07-24T00:20:01.070Z,1015.55
2016-07-24T00:20:11.066Z,1015.63
2016-07-24T00:20:21.061Z,1015.58
2016-07-24T00:20:31.058Z,1015.65
2016-07-24T00:20:41.051Z,1015.58
2016-07-24T00:20:51.046Z,1015.6
2016-07-24T00:21:01.042Z,1015.6
2016-07-24T00:21:11.039Z,1015.66
2016-07-24T00:21:21.034Z,1015.61
2016-07-24T00:21:31.029Z,1015.6
2016-07-24T00:21:41.023Z,1015.62
2016-07-24T00:21:51.021Z,1015.64
2016-07-24T00:22:01.015Z,1015.63
2016-07-24T00:22:11.010Z,1015.62
2016-07-24T00:22:21.007Z,1015.6
2016-07-24T00:22:31.002Z,1015.63
2016-07-24T00:22:40.995Z,1015.68
2016-07-24T00:22:50.991Z,1015.66
2016-07-24T00:23:00.990Z,1015.6
2016-07-24T00:23:10.983Z,1015.65
2016-07-24T00:23:20.978Z,1015.66
2016-07-24T00:23:30.974Z,1015.63
2016-07-24T00:23:40.971Z,1015.6
2016-07-24T00:23:50.966Z,1015.63
2016-07-24T00:24:00.967Z,1015.64
2016-07-24T00:24:10.954Z,1015.64
2016-07-24T00:24:20.952Z,1015.65
2016-07-24T00:24:30.946Z,1015.62
2016-07-24T00:24:40.946Z,1015.68
2016-07-24T00:24:50.938Z,1015.64
2016-07-24T00:25:00.933Z,1015.61
2016-07-24T00:25:10.931Z,1015.62
2016-07-24T00:25:20.926Z,1015.62
2016-07-24T00:25:30.919Z,1015.62
2016-07-24T00:25:40.917Z,1015.65
2016-07-24T00:25:50.916Z,1015.62
2016-07-24T00:26:00.910Z,1015.61
2016-07-24T00:26:10.902Z,1015.61
2016-07-24T00:26:20.899Z,1015.65
2016-07-24T00:26:30.893Z,1015.64
2016-07-24T00:26:40.888Z,1015.66
2016-07-24T00:26:50.883Z,1015.6
2016-07-24T00:27:00.880Z,1015.67
2016-07-24T00:27:10.876Z,1015.62
2016-07-24T00:27:20.872Z,1015.67
2016-07-24T00:27:30.867Z,1015.64
2016-07-24T00:27:40.862Z,1015.61
2016-07-24T00:27:50.858Z,1015.69
2016-07-24T00:28:01.582Z,1015.64
2016-07-24T00:28:10.847Z,1015.65
2016-07-24T00:28:20.844Z,1015.65
2016-07-24T00:28:30.838Z,1015.63
2016-07-24T00:28:40.835Z,1015.61
2016-07-24T00:28:50.830Z,1015.64
2016-07-24T00:29:00.824Z,1015.61
2016-07-24T00:29:10.822Z,1015.6
2016-07-24T00:29:20.815Z,1015.64
2016-07-24T00:29:30.813Z,1015.67
2016-07-24T00:29:40.809Z,1015.66
2016-07-24T00:29:50.803Z,1015.64
2016-07-24T00:30:00.799Z,1015.65
2016-07-24T00:30:10.796Z,1015.64
2016-07-24T00:30:20.789Z,1015.64
2016-07-24T00:30:30.786Z,1015.65
2016-07-24T00:30:40.778Z,1015.65
2016-07-24T00:30:50.775Z,1015.65
2016-07-24T00:31:00.772Z,1015.64
2016-07-24T00:31:10.766Z,1015.66
2016-07-24T00:31:20.768Z,1015.62
2016-07-24T00:31:30.757Z,1015.62
2016-07-24T00:31:40.752Z,1015.63
2016-07-24T00:31:50.748Z,1015.63
2016-07-24T00:32:00.743Z,1015.65
2016-07-24T00:32:10.744Z,1015.65
2016-07-24T00:32:20.735Z,1015.64
2016-07-24T00:32:30.730Z,1015.62
2016-07-24T00:32:40.727Z,1015.64
2016-07-24T00:32:50.721Z,1015.61
2016-07-24T00:33:00.716Z,1015.63
2016-07-24T00:33:10.713Z,1015.6
2016-07-24T00:33:20.707Z,1015.6
2016-07-24T00:33:30.703Z,1015.63
2016-07-24T00:33:40.700Z,1015.65
2016-07-24T00:33:50.693Z,1015.65
2016-07-24T00:34:00.690Z,1015.65
2016-07-24T00:34:10.685Z,1015.67
2016-07-24T00:34:20.679Z,1015.63
2016-07-24T00:34:30.676Z,1015.62
2016-07-24T00:34:40.668Z,1015.63
2016-07-24T00:34:50.668Z,1015.63
2016-07-24T00:35:00.663Z,1015.6
2016-07-24T00:35:10.658Z,1015.66
2016-07-24T00:35:20.654Z,1015.67
2016-07-24T00:35:30.648Z,1015.66
2016-07-24T00:35:40.644Z,1015.63
2016-07-24T00:35:50.640Z,1015.61
2016-07-24T00:36:00.635Z,1015.63
2016-07-24T00:36:10.632Z,1015.67
2016-07-24T00:36:20.627Z,1015.63
2016-07-24T00:36:30.622Z,1015.65
2016-07-24T00:36:40.616Z,1015.69
2016-07-24T00:36:50.612Z,1015.63
2016-07-24T00:37:00.608Z,1015.61
2016-07-24T00:37:10.604Z,1015.62
2016-07-24T00:37:20.598Z,1015.65
2016-07-24T00:37:30.594Z,1015.63
2016-07-24T00:37:40.590Z,1015.61
2016-07-24T00:37:50.587Z,1015.62
2016-07-24T00:38:00.581Z,1015.61
2016-07-24T00:38:10.577Z,1015.66
2016-07-24T00:38:20.573Z,1015.63
2016-07-24T00:38:30.567Z,1015.63
2016-07-24T00:38:40.563Z,1015.61
2016-07-24T00:38:50.558Z,1015.62
2016-07-24T00:39:00.555Z,1015.64
2016-07-24T00:39:10.550Z,1015.62
2016-07-24T00:39:20.546Z,1015.58
2016-07-24T00:39:30.538Z,1015.59
2016-07-24T00:39:40.534Z,1015.63
2016-07-24T00:39:50.533Z,1015.6
2016-07-24T00:40:00.527Z,1015.58
2016-07-24T00:40:10.521Z,1015.63
2016-07-24T00:40:20.517Z,1015.64
2016-07-24T00:40:30.513Z,1015.63
2016-07-24T00:40:40.509Z,1015.61
2016-07-24T00:40:50.500Z,1015.61
2016-07-24T00:41:00.501Z,1015.61
2016-07-24T00:41:10.494Z,1015.62
2016-07-24T00:41:20.489Z,1015.59
2016-07-24T00:41:30.485Z,1015.6
2016-07-24T00:41:40.480Z,1015.6
2016-07-24T00:41:50.475Z,1015.59
2016-07-24T00:42:00.471Z,1015.58
2016-07-24T00:42:10.471Z,1015.59
2016-07-24T00:42:20.463Z,1015.6
2016-07-24T00:42:30.457Z,1015.61
2016-07-24T00:42:40.454Z,1015.6
2016-07-24T00:42:50.450Z,1015.61
2016-07-24T00:43:00.444Z,1015.62
2016-07-24T00:43:10.439Z,1015.59
2016-07-24T00:43:20.436Z,1015.66
2016-07-24T00:43:30.429Z,1015.63
2016-07-24T00:43:40.429Z,1015.68
2016-07-24T00:43:50.427Z,1015.68
2016-07-24T00:44:01.155Z,1015.63
2016-07-24T00:44:10.413Z,1015.61
2016-07-24T00:44:20.414Z,1015.63
2016-07-24T00:44:30.402Z,1015.61
2016-07-24T00:44:40.401Z,1015.67
2016-07-24T00:44:50.394Z,1015.66
2016-07-24T00:45:00.388Z,1015.62
2016-07-24T00:45:10.391Z,1015.68
2016-07-24T00:45:20.380Z,1015.66
2016-07-24T00:45:30.379Z,1015.59
2016-07-24T00:45:40.373Z,1015.6
2016-07-24T00:45:50.366Z,1015.66
2016-07-24T00:46:00.362Z,1015.67
2016-07-24T00:46:10.359Z,1015.66
2016-07-24T00:46:20.354Z,1015.7
2016-07-24T00:46:30.352Z,1015.67
2016-07-24T00:46:40.346Z,1015.68
2016-07-24T00:46:50.339Z,1015.7
2016-07-24T00:47:00.336Z,1015.7
2016-07-24T00:47:10.331Z,1015.72
2016-07-24T00:47:20.327Z,1015.65
2016-07-24T00:47:30.321Z,1015.67
2016-07-24T00:47:40.318Z,1015.67
2016-07-24T00:47:50.314Z,1015.66
2016-07-24T00:48:00.306Z,1015.72
2016-07-24T00:48:10.304Z,1015.69
2016-07-24T00:48:20.304Z,1015.7
2016-07-24T00:48:30.295Z,1015.69
2016-07-24T00:48:40.290Z,1015.7
2016-07-24T00:48:50.285Z,1015.65
2016-07-24T00:49:00.282Z,1015.71
2016-07-24T00:49:10.276Z,1015.71
2016-07-24T00:49:20.272Z,1015.69
2016-07-24T00:49:30.266Z,1015.64
2016-07-24T00:49:40.267Z,1015.66
2016-07-24T00:49:50.260Z,1015.7
2016-07-24T00:50:00.254Z,1015.71
2016-07-24T00:50:10.249Z,1015.7
2016-07-24T00:50:20.245Z,1015.74
2016-07-24T00:50:30.239Z,1015.66
2016-07-24T00:50:40.236Z,1015.7
2016-07-24T00:50:50.232Z,1015.67
2016-07-24T00:51:00.227Z,1015.7
2016-07-24T00:51:10.223Z,1015.67
2016-07-24T00:51:20.217Z,1015.67
2016-07-24T00:51:30.213Z,1015.7
2016-07-24T00:51:40.207Z,1015.69
2016-07-24T00:51:50.203Z,1015.71
2016-07-24T00:52:00.199Z,1015.69
2016-07-24T00:52:10.195Z,1015.7
2016-07-24T00:52:20.191Z,1015.66
2016-07-24T00:52:30.186Z,1015.68
2016-07-24T00:52:40.181Z,1015.67
2016-07-24T00:52:50.176Z,1015.7
2016-07-24T00:53:00.172Z,1015.67
2016-07-24T00:53:10.168Z,1015.69
2016-07-24T00:53:20.164Z,1015.7
2016-07-24T00:53:30.889Z,1015.71
2016-07-24T00:53:40.154Z,1015.66
2016-07-24T00:53:50.149Z,1015.71
2016-07-24T00:54:00.146Z,1015.66
2016-07-24T00:54:10.140Z,1015.69
2016-07-24T00:54:20.135Z,1015.68
2016-07-24T00:54:30.133Z,1015.62
2016-07-24T00:54:40.126Z,1015.67
2016-07-24T00:54:50.123Z,1015.67
2016-07-24T00:55:00.120Z,1015.68
2016-07-24T00:55:10.112Z,1015.68
2016-07-24T00:55:20.110Z,1015.71
2016-07-24T00:55:30.105Z,1015.71
2016-07-24T00:55:40.100Z,1015.67
2016-07-24T00:55:50.095Z,1015.62
2016-07-24T00:56:00.090Z,1015.7
2016-07-24T00:56:10.086Z,1015.67
2016-07-24T00:56:20.083Z,1015.68
2016-07-24T00:56:30.076Z,1015.68
2016-07-24T00:56:40.073Z,1015.62
2016-07-24T00:56:50.068Z,1015.67
2016-07-24T00:57:00.063Z,1015.61
2016-07-24T00:57:10.061Z,1015.68
2016-07-24T00:57:20.055Z,1015.63
2016-07-24T00:57:30.053Z,1015.7
2016-07-24T00:57:40.046Z,1015.69
2016-07-24T00:57:50.042Z,1015.64
2016-07-24T00:58:00.037Z,1015.66
2016-07-24T00:58:10.031Z,1015.61
2016-07-24T00:58:20.028Z,1015.65
2016-07-24T00:58:30.023Z,1015.63
2016-07-24T00:58:40.018Z,1015.68
2016-07-24T00:58:50.014Z,1015.66
2016-07-24T00:59:00.012Z,1015.68
2016-07-24T00:59:10.005Z,1015.69
2016-07-24T00:59:20.000Z,1015.67
2016-07-24T00:59:29.995Z,1015.68
2016-07-24T00:59:39.992Z,1015.63
2016-07-24T00:59:49.988Z,1015.6
2016-07-24T00:59:59.985Z,1015.66
2016-07-24T01:00:09.976Z,1015.63
2016-07-24T01:00:19.974Z,1015.63
2016-07-24T01:00:29.968Z,1015.66
2016-07-24T01:00:39.963Z,1015.61
2016-07-24T01:00:49.960Z,1015.66
2016-07-24T01:00:59.955Z,1015.61
2016-07-24T01:01:09.951Z,1015.64
2016-07-24T01:01:19.946Z,1015.64
2016-07-24T01:01:29.938Z,1015.62
2016-07-24T01:01:39.936Z,1015.64
2016-07-24T01:01:49.932Z,1015.62
2016-07-24T01:01:59.927Z,1015.65
2016-07-24T01:02:09.922Z,1015.61
2016-07-24T01:02:19.917Z,1015.61
2016-07-24T01:02:29.915Z,1015.61
2016-07-24T01:02:39.913Z,1015.65
2016-07-24T01:02:49.905Z,1015.64
2016-07-24T01:02:59.901Z,1015.67
2016-07-24T01:03:09.894Z,1015.63
2016-07-24T01:03:19.891Z,1015.67
2016-07-24T01:03:29.887Z,1015.67
2016-07-24T01:03:39.882Z,1015.64
2016-07-24T01:03:49.878Z,1015.61
2016-07-24T01:03:59.873Z,1015.66
2016-07-24T01:04:09.869Z,1015.67
2016-07-24T01:04:19.866Z,1015.66
2016-07-24T01:04:29.861Z,1015.64
2016-07-24T01:04:39.861Z,1015.67
2016-07-24T01:04:49.848Z,1015.69
2016-07-24T01:04:59.843Z,1015.69
2016-07-24T01:05:09.846Z,1015.69
2016-07-24T01:05:19.837Z,1015.67
2016-07-24T01:05:29.832Z,1015.64
2016-07-24T01:05:39.828Z,1015.66
2016-07-24T01:05:49.822Z,1015.69
2016-07-24T01:05:59.824Z,1015.69
2016-07-24T01:06:09.813Z,1015.65
2016-07-24T01:06:19.811Z,1015.72
2016-07-24T01:06:29.804Z,1015.7
2016-07-24T01:06:39.798Z,1015.7
2016-07-24T01:06:49.795Z,1015.65
2016-07-24T01:06:59.791Z,1015.68
2016-07-24T01:07:09.791Z,1015.73
2016-07-24T01:07:19.783Z,1015.73
2016-07-24T01:07:29.777Z,1015.67
2016-07-24T01:07:39.771Z,1015.69
2016-07-24T01:07:49.769Z,1015.65
2016-07-24T01:07:59.771Z,1015.73
2016-07-24T01:08:09.759Z,1015.7
2016-07-24T01:08:19.757Z,1015.68
2016-07-24T01:08:29.748Z,1015.65
2016-07-24T01:08:39.745Z,1015.67
2016-07-24T01:08:49.739Z,1015.7
2016-07-24T01:08:59.734Z,1015.68
2016-07-24T01:09:09.733Z,1015.69
2016-07-24T01:09:19.726Z,1015.68
2016-07-24T01:09:29.723Z,1015.63
2016-07-24T01:09:39.718Z,1015.69
2016-07-24T01:09:49.712Z,1015.68
2016-07-24T01:09:59.709Z,1015.68
2016-07-24T01:10:09.705Z,1015.67
2016-07-24T01:10:19.699Z,1015.7
2016-07-24T01:10:29.695Z,1015.7
2016-07-24T01:10:39.695Z,1015.67
2016-07-24T01:10:49.685Z,1015.68
2016-07-24T01:10:59.683Z,1015.7
2016-07-24T01:11:09.674Z,1015.69
2016-07-24T01:11:19.672Z,1015.7
2016-07-24T01:11:29.667Z,1015.7
2016-07-24T01:11:39.663Z,1015.66
2016-07-24T01:11:49.660Z,1015.67
2016-07-24T01:11:59.656Z,1015.67
2016-07-24T01:12:09.650Z,1015.68
2016-07-24T01:12:19.645Z,1015.65
2016-07-24T01:12:29.640Z,1015.7
2016-07-24T01:12:39.636Z,1015.63
2016-07-24T01:12:49.631Z,1015.65
2016-07-24T01:12:59.628Z,1015.66
2016-07-24T01:13:09.623Z,1015.69
2016-07-24T01:13:19.617Z,1015.65
2016-07-24T01:13:29.615Z,1015.7
2016-07-24T01:13:39.610Z,1015.7
2016-07-24T01:13:49.604Z,1015.71
2016-07-24T01:13:59.600Z,1015.67
2016-07-24T01:14:09.594Z,1015.7
2016-07-24T01:14:19.587Z,1015.71
2016-07-24T01:14:29.586Z,1015.66
2016-07-24T01:14:39.581Z,1015.68
2016-07-24T01:14:49.576Z,1015.64
2016-07-24T01:14:59.574Z,1015.69
2016-07-24T01:15:09.568Z,1015.68
2016-07-24T01:15:19.564Z,1015.67
2016-07-24T01:15:29.557Z,1015.66
2016-07-24T01:15:39.566Z,1015.68
2016-07-24T01:15:49.555Z,1015.67
2016-07-24T01:15:59.547Z,1015.71
2016-07-24T01:16:10.268Z,1015.67
2016-07-24T01:16:19.537Z,1015.69
2016-07-24T01:16:29.531Z,1015.69
2016-07-24T01:16:39.527Z,1015.66
2016-07-24T01:16:49.522Z,1015.66
2016-07-24T01:16:59.521Z,1015.69
2016-07-24T01:17:09.517Z,1015.66
2016-07-24T01:17:19.510Z,1015.65
2016-07-24T01:17:29.505Z,1015.69
2016-07-24T01:17:39.500Z,1015.7
2016-07-24T01:17:49.495Z,1015.7
2016-07-24T01:17:59.491Z,1015.64
2016-07-24T01:18:09.487Z,1015.69
2016-07-24T01:18:19.480Z,1015.66
2016-07-24T01:18:29.477Z,1015.64
2016-07-24T01:18:39.473Z,1015.69
2016-07-24T01:18:49.468Z,1015.64
2016-07-24T01:18:59.464Z,1015.66
2016-07-24T01:19:09.458Z,1015.64
2016-07-24T01:19:19.457Z,1015.59
2016-07-24T01:19:29.453Z,1015.62
2016-07-24T01:19:39.447Z,1015.63
2016-07-24T01:19:49.440Z,1015.62
2016-07-24T01:19:59.436Z,1015.67
2016-07-24T01:20:09.431Z,1015.67
2016-07-24T01:20:19.425Z,1015.66
2016-07-24T01:20:29.422Z,1015.67
2016-07-24T01:20:39.417Z,1015.65
2016-07-24T01:20:49.414Z,1015.63
2016-07-24T01:20:59.408Z,1015.66
2016-07-24T01:21:09.405Z,1015.69
2016-07-24T01:21:19.398Z,1015.71
2016-07-24T01:21:29.394Z,1015.68
2016-07-24T01:21:39.396Z,1015.69
2016-07-24T01:21:49.386Z,1015.66
2016-07-24T01:21:59.382Z,1015.64
2016-07-24T01:22:09.377Z,1015.67
2016-07-24T01:22:19.372Z,1015.63
2016-07-24T01:22:29.368Z,1015.66
2016-07-24T01:22:39.363Z,1015.7
2016-07-24T01:22:49.356Z,1015.63
2016-07-24T01:22:59.354Z,1015.65
2016-07-24T01:23:09.351Z,1015.63
2016-07-24T01:23:19.346Z,1015.69
2016-07-24T01:23:29.345Z,1015.62
2016-07-24T01:23:39.335Z,1015.67
2016-07-24T01:23:49.333Z,1015.66
2016-07-24T01:23:59.327Z,1015.65
2016-07-24T01:24:09.323Z,1015.64
2016-07-24T01:24:19.318Z,1015.62
2016-07-24T01:24:29.313Z,1015.64
2016-07-24T01:24:39.310Z,1015.65
2016-07-24T01:24:49.304Z,1015.66
2016-07-24T01:24:59.301Z,1015.68
2016-07-24T01:25:09.296Z,1015.64
2016-07-24T01:25:19.291Z,1015.7
2016-07-24T01:25:29.286Z,1015.68
2016-07-24T01:25:39.285Z,1015.69
2016-07-24T01:25:49.277Z,1015.68
2016-07-24T01:25:59.274Z,1015.68
2016-07-24T01:26:09.266Z,1015.68
2016-07-24T01:26:19.262Z,1015.63
2016-07-24T01:26:29.258Z,1015.71
2016-07-24T01:26:39.253Z,1015.67
2016-07-24T01:26:49.249Z,1015.68
2016-07-24T01:26:59.248Z,1015.66
2016-07-24T01:27:09.241Z,1015.7
2016-07-24T01:27:19.234Z,1015.68
2016-07-24T01:27:29.232Z,1015.74
2016-07-24T01:27:39.230Z,1015.69
2016-07-24T01:27:49.223Z,1015.67
2016-07-24T01:27:59.217Z,1015.71
2016-07-24T01:28:09.213Z,1015.73
2016-07-24T01:28:19.210Z,1015.7
2016-07-24T01:28:29.202Z,1015.72
2016-07-24T01:28:39.202Z,1015.76
2016-07-24T01:28:49.193Z,1015.7
2016-07-24T01:28:59.189Z,1015.71
2016-07-24T01:29:09.188Z,1015.69
2016-07-24T01:29:19.182Z,1015.69
2016-07-24T01:29:29.176Z,1015.68
2016-07-24T01:29:39.173Z,1015.73
2016-07-24T01:29:49.168Z,1015.7
2016-07-24T01:29:59.161Z,1015.68
2016-07-24T01:30:09.157Z,1015.68
2016-07-24T01:30:19.153Z,1015.63
2016-07-24T01:30:29.150Z,1015.72
2016-07-24T01:30:39.144Z,1015.7
2016-07-24T01:30:49.141Z,1015.72
2016-07-24T01:30:59.137Z,1015.72
2016-07-24T01:31:09.132Z,1015.7
2016-07-24T01:31:19.127Z,1015.71
2016-07-24T01:31:29.122Z,1015.71
2016-07-24T01:31:39.116Z,1015.75
2016-07-24T01:31:49.114Z,1015.69
2016-07-24T01:31:59.107Z,1015.67
2016-07-24T01:32:09.105Z,1015.7
2016-07-24T01:32:19.100Z,1015.69
2016-07-24T01:32:29.095Z,1015.67
2016-07-24T01:32:39.091Z,1015.7
2016-07-24T01:32:49.086Z,1015.7
2016-07-24T01:32:59.079Z,1015.69
2016-07-24T01:33:09.077Z,1015.72
2016-07-24T01:33:19.073Z,1015.69
2016-07-24T01:33:29.066Z,1015.66
2016-07-24T01:33:39.064Z,1015.66
2016-07-24T01:33:49.056Z,1015.7
2016-07-24T01:33:59.054Z,1015.65
2016-07-24T01:34:09.048Z,1015.65
2016-07-24T01:34:19.046Z,1015.64
2016-07-24T01:34:29.041Z,1015.66
2016-07-24T01:34:39.037Z,1015.62
2016-07-24T01:34:49.030Z,1015.65
2016-07-24T01:34:59.026Z,1015.62
2016-07-24T01:35:09.752Z,1015.63
2016-07-24T01:35:19.017Z,1015.62
2016-07-24T01:35:29.012Z,1015.63
2016-07-24T01:35:39.007Z,1015.63
2016-07-24T01:35:49.004Z,1015.66
2016-07-24T01:35:59.001Z,1015.66
2016-07-24T01:36:08.994Z,1015.65
2016-07-24T01:36:18.990Z,1015.63
2016-07-24T01:36:28.985Z,1015.68
2016-07-24T01:36:38.981Z,1015.62
2016-07-24T01:36:48.975Z,1015.7
2016-07-24T01:36:58.971Z,1015.61
2016-07-24T01:37:08.964Z,1015.62
2016-07-24T01:37:18.961Z,1015.68
2016-07-24T01:37:28.959Z,1015.65
2016-07-24T01:37:38.954Z,1015.62
2016-07-24T01:37:48.949Z,1015.6
2016-07-24T01:37:58.946Z,1015.62
2016-07-24T01:38:08.940Z,1015.62
2016-07-24T01:38:18.936Z,1015.59
2016-07-24T01:38:28.932Z,1015.65
2016-07-24T01:38:38.927Z,1015.66
2016-07-24T01:38:48.920Z,1015.66
2016-07-24T01:38:58.918Z,1015.64
2016-07-24T01:39:08.913Z,1015.65
2016-07-24T01:39:18.909Z,1015.65
2016-07-24T01:39:28.900Z,1015.6
2016-07-24T01:39:38.898Z,1015.58
2016-07-24T01:39:48.893Z,1015.62
2016-07-24T01:39:58.889Z,1015.61
2016-07-24T01:40:08.884Z,1015.64
2016-07-24T01:40:18.880Z,1015.62
2016-07-24T01:40:28.876Z,1015.63
2016-07-24T01:40:38.872Z,1015.65
2016-07-24T01:40:48.866Z,1015.61
2016-07-24T01:40:58.861Z,1015.62
2016-07-24T01:41:08.860Z,1015.66
2016-07-24T01:41:18.853Z,1015.58
2016-07-24T01:41:28.848Z,1015.6
2016-07-24T01:41:38.844Z,1015.62
2016-07-24T01:41:48.837Z,1015.65
2016-07-24T01:41:59.563Z,1015.61
2016-07-24T01:42:08.831Z,1015.62
2016-07-24T01:42:18.825Z,1015.62
2016-07-24T01:42:28.823Z,1015.62
2016-07-24T01:42:38.817Z,1015.62
2016-07-24T01:42:48.813Z,1015.6
2016-07-24T01:42:58.808Z,1015.56
2016-07-24T01:43:08.801Z,1015.59
2016-07-24T01:43:18.799Z,1015.58
2016-07-24T01:43:28.792Z,1015.59
2016-07-24T01:43:38.789Z,1015.64
2016-07-24T01:43:48.785Z,1015.61
2016-07-24T01:43:58.779Z,1015.56
2016-07-24T01:44:08.776Z,1015.59
2016-07-24T01:44:18.771Z,1015.6
2016-07-24T01:44:28.765Z,1015.58
2016-07-24T01:44:38.764Z,1015.62
2016-07-24T01:44:48.756Z,1015.65
2016-07-24T01:44:58.753Z,1015.56
2016-07-24T01:45:08.750Z,1015.57
2016-07-24T01:45:18.742Z,1015.62
2016-07-24T01:45:28.739Z,1015.61
2016-07-24T01:45:38.735Z,1015.6
2016-07-24T01:45:48.734Z,1015.58
2016-07-24T01:45:58.725Z,1015.51
2016-07-24T01:46:08.720Z,1015.57
2016-07-24T01:46:18.717Z,1015.55
2016-07-24T01:46:28.713Z,1015.55
2016-07-24T01:46:38.720Z,1015.54
2016-07-24T01:46:48.702Z,1015.57
2016-07-24T01:46:58.700Z,1015.56
2016-07-24T01:47:08.692Z,1015.58
2016-07-24T01:47:18.688Z,1015.58
2016-07-24T01:47:28.684Z,1015.57
2016-07-24T01:47:38.679Z,1015.55
2016-07-24T01:47:48.674Z,1015.53
2016-07-24T01:47:58.672Z,1015.59
2016-07-24T01:48:08.668Z,1015.57
2016-07-24T01:48:18.663Z,1015.59
2016-07-24T01:48:28.656Z,1015.56
2016-07-24T01:48:38.653Z,1015.58
2016-07-24T01:48:48.648Z,1015.58
2016-07-24T01:48:58.644Z,1015.59
2016-07-24T01:49:08.644Z,1015.58
2016-07-24T01:49:18.633Z,1015.55
2016-07-24T01:49:28.630Z,1015.56
2016-07-24T01:49:38.625Z,1015.62
2016-07-24T01:49:48.619Z,1015.58
2016-07-24T01:49:58.616Z,1015.6
2016-07-24T01:50:08.611Z,1015.58
2016-07-24T01:50:18.607Z,1015.56
2016-07-24T01:50:28.606Z,1015.55
2016-07-24T01:50:38.598Z,1015.58
2016-07-24T01:50:48.594Z,1015.55
2016-07-24T01:50:58.589Z,1015.57
2016-07-24T01:51:08.583Z,1015.54
2016-07-24T01:51:18.580Z,1015.56
2016-07-24T01:51:28.575Z,1015.61
2016-07-24T01:51:38.571Z,1015.59
2016-07-24T01:51:48.567Z,1015.57
2016-07-24T01:51:58.563Z,1015.55
2016-07-24T01:52:08.556Z,1015.59
2016-07-24T01:52:18.552Z,1015.55
2016-07-24T01:52:28.547Z,1015.55
2016-07-24T01:52:38.550Z,1015.55
2016-07-24T01:52:48.537Z,1015.57
2016-07-24T01:52:58.535Z,1015.56
2016-07-24T01:53:08.529Z,1015.56
2016-07-24T01:53:18.524Z,1015.56
2016-07-24T01:53:28.519Z,1015.54
2016-07-24T01:53:38.517Z,1015.53
2016-07-24T01:53:48.512Z,1015.58
2016-07-24T01:53:58.507Z,1015.56
2016-07-24T01:54:08.502Z,1015.57
2016-07-24T01:54:19.227Z,1015.52
2016-07-24T01:54:28.492Z,1015.53
2016-07-24T01:54:38.490Z,1015.58
2016-07-24T01:54:48.484Z,1015.58
2016-07-24T01:54:58.480Z,1015.56
2016-07-24T01:55:08.482Z,1015.57
2016-07-24T01:55:18.471Z,1015.58
2016-07-24T01:55:28.464Z,1015.58
2016-07-24T01:55:38.463Z,1015.53
2016-07-24T01:55:48.456Z,1015.55
2016-07-24T01:55:58.452Z,1015.56
2016-07-24T01:56:08.448Z,1015.58
2016-07-24T01:56:18.443Z,1015.59
2016-07-24T01:56:28.437Z,1015.57
2016-07-24T01:56:38.434Z,1015.52
2016-07-24T01:56:48.434Z,1015.55
2016-07-24T01:56:58.423Z,1015.55
2016-07-24T01:57:08.421Z,1015.52
2016-07-24T01:57:18.415Z,1015.53
2016-07-24T01:57:28.411Z,1015.58
2016-07-24T01:57:38.407Z,1015.54
2016-07-24T01:57:48.402Z,1015.52
2016-07-24T01:57:58.395Z,1015.54
2016-07-24T01:58:08.391Z,1015.52
2016-07-24T01:58:18.393Z,1015.53
2016-07-24T01:58:28.383Z,1015.51
2016-07-24T01:58:38.376Z,1015.56
2016-07-24T01:58:48.375Z,1015.53
2016-07-24T01:58:58.370Z,1015.55
2016-07-24T01:59:08.365Z,1015.51
2016-07-24T01:59:18.359Z,1015.52
2016-07-24T01:59:28.356Z,1015.51
2016-07-24T01:59:38.351Z,1015.53
2016-07-24T01:59:48.346Z,1015.58
2016-07-24T01:59:58.342Z,1015.55
2016-07-24T02:00:08.338Z,1015.59
2016-07-24T02:00:18.334Z,1015.54
2016-07-24T02:00:28.329Z,1015.55
2016-07-24T02:00:38.325Z,1015.5
2016-07-24T02:00:48.319Z,1015.51
2016-07-24T02:00:58.332Z,1015.51
2016-07-24T02:01:08.311Z,1015.48
2016-07-24T02:01:18.305Z,1015.57